Ordot, Guam
Current Conditions -  °F | °C
As of 7:54 AM on Thursday 23 Oct 2014 (Local Time) from PGUM Reporting Station
Heavy Rain Heavy Rain  
Wind Chill: 78°   Ceiling: 2500
Heat Index: 81°   Visibility: 0.75mi
Dew Point: 76°   Wind: 8mph
Humidity: 93%   Direction: 30°NNE
Pressure: 29.87"   Gusts: NA
Location:  13.4744°N, 144.7478°E
Report Text: PGUM 222154Z 03007KT 3/4SM +RA BR FEW015 BKN025 BKN030 26/24 A2987 RMK AO2 RAB41 SLP105 P0019 T02560244
Loading
Personal Weather Stations






























Interactive Weather Map
Tropical Storm Tracking
New forecast layout! Learn more

10-Day Weather Forecast

Advertisements
Track Severe Weather on mobile